Time;durP1;ratioP1;P1;durP2;ratioP2;P2;SDS_P1;SDS_P2;PMS_P1;PMS_P2;Temp;Humidity;BMP_temperature;BMP_pressure;BME280_temperature;BME280_humidity;BME280_pressure;Samples;Min_cycle;Max_cycle;Signal;HPM_P1;HPM_P2
2021/11/07 00:06:51;;;;;;;13.88;9.30;;;10.70;99.90;;;;;;5012409;28;20111;-53
2021/11/07 00:11:54;;;;;;;13.20;9.30;;;10.70;99.90;;;;;;5012025;28;20510;-55
2021/11/07 00:14:21;;;;;;;12.83;8.40;;;10.70;99.90;;;;;;4994596;28;20053;-53
2021/11/07 00:16:47;;;;;;;13.50;7.97;;;10.70;99.90;;;;;;4997896;28;20046;-54
2021/11/07 00:19:17;;;;;;;13.07;8.98;;;10.70;99.90;;;;;;5012317;28;20461;-53
2021/11/07 00:21:50;;;;;;;10.07;7.93;;;10.70;99.90;;;;;;5013206;28;20034;-54
2021/11/07 00:24:21;;;;;;;13.10;8.23;;;10.70;99.90;;;;;;5012574;28;20444;-56
2021/11/07 00:26:55;;;;;;;10.83;7.63;;;10.80;99.90;;;;;;5013792;28;20087;-53
2021/11/07 00:29:25;;;;;;;10.52;7.35;;;10.80;99.90;;;;;;5020200;28;20073;-54
2021/11/07 00:32:01;;;;;;;10.32;7.53;;;10.70;99.90;;;;;;4994963;28;20037;-54
2021/11/07 00:34:50;;;;;;;12.77;7.93;;;10.80;99.90;;;;;;5011363;28;20398;-53
2021/11/07 00:37:17;;;;;;;13.75;7.45;;;10.80;99.90;;;;;;5015834;28;20054;-53
2021/11/07 00:39:48;;;;;;;10.35;6.82;;;10.80;99.90;;;;;;5012043;28;20091;-53
2021/11/07 00:42:26;;;;;;;8.80;7.28;;;10.80;99.90;;;;;;4994480;28;20041;-53
2021/11/07 00:45:03;;;;;;;10.90;7.80;;;10.80;99.90;;;;;;5012504;28;20117;-55
2021/11/07 00:47:41;;;;;;;12.02;7.28;;;10.80;99.90;;;;;;5015354;28;20046;-54
2021/11/07 00:50:11;;;;;;;12.30;7.55;;;10.80;99.90;;;;;;5009483;28;20046;-54
2021/11/07 00:55:19;;;;;;;13.68;7.30;;;10.80;99.90;;;;;;4993737;28;20169;-54
2021/11/07 00:57:54;;;;;;;18.08;8.05;;;10.90;99.90;;;;;;5018743;28;20095;-53
2021/11/07 01:00:48;;;;;;;14.68;8.30;;;10.90;99.90;;;;;;5010270;28;20073;-55
2021/11/07 01:03:13;;;;;;;13.15;8.25;;;10.90;99.90;;;;;;5010541;28;20512;-55
2021/11/07 01:05:39;;;;;;;10.70;7.47;;;10.90;99.90;;;;;;5013226;28;20041;-54
2021/11/07 01:08:06;;;;;;;13.27;8.25;;;10.90;99.90;;;;;;4993973;28;20474;-56
2021/11/07 01:10:32;;;;;;;12.30;7.97;;;10.90;99.90;;;;;;5021428;28;20050;-53
2021/11/07 01:12:58;;;;;;;11.57;7.82;;;10.90;99.90;;;;;;5015993;28;20069;-56
2021/11/07 01:15:28;;;;;;;12.88;7.97;;;10.90;99.90;;;;;;5010828;28;20485;-53
2021/11/07 01:17:57;;;;;;;13.00;7.88;;;11.00;99.90;;;;;;5011383;28;20029;-54
2021/11/07 01:20:25;;;;;;;13.10;7.72;;;10.90;99.90;;;;;;5010853;28;20490;-53
2021/11/07 01:23:16;;;;;;;12.45;7.40;;;11.00;99.90;;;;;;5011197;28;20042;-53
2021/11/07 01:25:44;;;;;;;13.65;7.43;;;11.00;99.90;;;;;;4993611;28;20049;-53
2021/11/07 01:28:10;;;;;;;13.63;8.35;;;11.00;99.90;;;;;;5010698;28;20112;-53
2021/11/07 01:30:47;;;;;;;17.55;8.77;;;11.00;99.90;;;;;;5002690;28;20045;-53
2021/11/07 01:33:19;;;;;;;12.25;7.95;;;11.00;99.90;;;;;;5003055;28;20042;-53
2021/11/07 01:35:54;;;;;;;18.42;9.20;;;11.00;99.90;;;;;;5007218;28;20045;-55
2021/11/07 01:38:26;;;;;;;16.58;8.30;;;11.00;99.90;;;;;;4993341;28;20083;-53
2021/11/07 01:41:02;;;;;;;12.63;7.53;;;11.00;99.90;;;;;;5011172;28;20397;-54
2021/11/07 01:43:28;;;;;;;13.77;9.00;;;11.00;99.90;;;;;;4992984;28;20034;-54
2021/11/07 01:46:04;;;;;;;15.13;9.18;;;11.00;99.90;;;;;;5008272;28;20040;-54
2021/11/07 01:48:32;;;;;;;19.10;9.00;;;11.00;99.90;;;;;;5001034;28;20038;-53
2021/11/07 01:51:00;;;;;;;21.17;8.70;;;11.10;99.90;;;;;;5007412;28;20030;-53
2021/11/07 01:53:37;;;;;;;22.08;8.80;;;11.10;99.90;;;;;;5008070;28;20033;-54
2021/11/07 01:56:10;;;;;;;22.65;8.27;;;11.10;99.90;;;;;;4999798;28;20126;-53
2021/11/07 01:58:36;;;;;;;18.42;8.40;;;11.10;99.90;;;;;;5008740;28;20030;-54
2021/11/07 02:01:03;;;;;;;17.92;8.50;;;11.10;99.90;;;;;;5011223;28;20108;-53
2021/11/07 02:03:29;;;;;;;20.63;8.80;;;11.10;99.90;;;;;;5010659;28;20052;-53
2021/11/07 02:05:55;;;;;;;19.00;9.00;;;11.10;99.90;;;;;;4993288;28;20038;-53
2021/11/07 02:08:21;;;;;;;20.30;10.60;;;11.10;99.90;;;;;;5010650;28;20060;-53
2021/11/07 02:10:49;;;;;;;18.35;9.65;;;11.10;99.90;;;;;;5010596;28;20033;-54
2021/11/07 02:13:15;;;;;;;19.30;8.18;;;11.10;99.90;;;;;;5010356;28;20034;-53
2021/11/07 02:15:41;;;;;;;18.77;8.85;;;11.10;99.90;;;;;;5010568;28;20051;-55
2021/11/07 02:18:07;;;;;;;18.23;8.23;;;11.10;99.90;;;;;;5010741;28;20390;-54
2021/11/07 02:20:36;;;;;;;20.90;8.10;;;11.00;99.90;;;;;;5010405;28;20041;-53
2021/11/07 02:23:07;;;;;;;24.80;8.35;;;11.00;99.90;;;;;;5009439;28;20050;-53
2021/11/07 02:25:33;;;;;;;21.00;8.10;;;11.00;99.90;;;;;;5008712;28;20465;-55
2021/11/07 02:27:59;;;;;;;18.95;7.65;;;11.00;99.90;;;;;;5010690;28;20502;-53
2021/11/07 02:30:25;;;;;;;18.50;8.13;;;11.00;99.90;;;;;;5011061;28;20038;-55
2021/11/07 02:32:51;;;;;;;22.55;7.65;;;11.00;99.90;;;;;;5010253;28;20065;-53
2021/11/07 02:35:18;;;;;;;19.08;7.38;;;11.00;99.90;;;;;;5010683;28;20465;-54
2021/11/07 02:37:44;;;;;;;20.75;6.90;;;11.00;99.90;;;;;;5010654;28;20037;-53
2021/11/07 02:40:11;;;;;;;20.48;7.00;;;11.00;99.90;;;;;;5009837;28;20546;-53
2021/11/07 02:42:40;;;;;;;16.58;6.10;;;11.00;99.90;;;;;;5010775;28;20034;-54
2021/11/07 02:45:06;;;;;;;17.38;6.25;;;11.00;99.90;;;;;;5011285;28;20478;-55
2021/11/07 02:47:32;;;;;;;18.55;5.65;;;11.00;99.90;;;;;;5009986;28;20049;-53
2021/11/07 02:49:58;;;;;;;20.02;5.55;;;10.90;99.90;;;;;;5003932;28;20034;-53
2021/11/07 02:52:24;;;;;;;14.55;4.90;;;11.00;99.90;;;;;;5001712;28;20506;-54
2021/11/07 02:54:50;;;;;;;19.92;5.15;;;11.00;99.90;;;;;;5010548;28;20073;-53
2021/11/07 02:57:22;;;;;;;16.52;4.47;;;10.90;99.90;;;;;;5001941;28;20049;-53
2021/11/07 02:59:56;;;;;;;18.25;3.63;;;10.90;99.90;;;;;;5011114;28;20405;-53
2021/11/07 03:02:22;;;;;;;16.02;3.83;;;11.00;99.90;;;;;;5010911;28;20096;-53
2021/11/07 03:04:47;;;;;;;15.55;3.90;;;11.00;99.90;;;;;;5013388;28;20406;-54
2021/11/07 03:07:13;;;;;;;20.25;4.70;;;11.00;99.90;;;;;;5013098;28;20042;-53
2021/11/07 03:09:41;;;;;;;18.10;4.15;;;10.90;99.90;;;;;;5005751;28;20041;-53
2021/11/07 03:12:08;;;;;;;20.63;4.18;;;10.80;99.90;;;;;;5008958;28;20042;-53
2021/11/07 03:14:43;;;;;;;19.33;4.32;;;10.80;99.90;;;;;;5012832;28;20352;-53
2021/11/07 03:17:11;;;;;;;23.45;4.47;;;10.80;99.90;;;;;;5014222;28;20041;-53
2021/11/07 03:19:37;;;;;;;19.85;4.13;;;10.80;99.90;;;;;;5005689;28;20034;-55
2021/11/07 03:22:08;;;;;;;26.60;4.50;;;10.80;99.90;;;;;;5014750;28;20037;-53
2021/11/07 03:24:36;;;;;;;13.23;3.47;;;10.70;99.90;;;;;;5014243;28;20034;-53
2021/11/07 03:27:09;;;;;;;19.83;4.38;;;10.70;99.90;;;;;;5013332;28;20100;-55
2021/11/07 03:29:34;;;;;;;21.95;4.50;;;10.60;99.90;;;;;;5014100;28;20469;-54
2021/11/07 03:32:14;;;;;;;23.70;4.55;;;10.60;99.90;;;;;;5013178;28;20061;-54
2021/11/07 03:34:45;;;;;;;20.40;3.88;;;10.60;99.90;;;;;;4997173;28;20038;-53
2021/11/07 03:37:12;;;;;;;22.67;4.25;;;10.60;99.90;;;;;;5009527;28;20045;-53
2021/11/07 03:39:38;;;;;;;13.52;3.85;;;10.50;99.90;;;;;;5019454;28;20092;-53
2021/11/07 03:42:11;;;;;;;24.13;4.60;;;10.50;99.90;;;;;;5013805;28;20561;-53
2021/11/07 03:44:38;;;;;;;20.85;4.68;;;10.50;99.90;;;;;;5012132;28;20038;-53
2021/11/07 03:47:04;;;;;;;20.48;4.18;;;10.50;99.90;;;;;;5012174;28;20117;-54
2021/11/07 03:49:31;;;;;;;20.60;4.93;;;10.50;99.90;;;;;;5012715;28;20417;-54
2021/11/07 03:51:56;;;;;;;16.95;3.95;;;10.40;99.90;;;;;;5011618;28;20458;-53
2021/11/07 03:54:23;;;;;;;17.60;4.07;;;10.40;99.90;;;;;;5011655;28;20136;-53
2021/11/07 03:56:48;;;;;;;18.40;4.53;;;10.40;99.90;;;;;;5012749;28;20121;-53
2021/11/07 03:59:14;;;;;;;18.90;4.00;;;10.30;99.90;;;;;;5012535;28;20114;-53
2021/11/07 04:01:40;;;;;;;25.92;4.85;;;10.30;99.90;;;;;;5012388;28;20034;-53
2021/11/07 04:04:07;;;;;;;21.77;3.90;;;10.30;99.90;;;;;;5011877;28;20030;-53
2021/11/07 04:06:33;;;;;;;19.40;3.80;;;10.20;99.90;;;;;;5012177;28;20040;-53
2021/11/07 04:09:00;;;;;;;19.30;4.38;;;10.20;99.90;;;;;;5005230;28;20042;-53
2021/11/07 04:11:26;;;;;;;23.48;4.32;;;10.20;99.90;;;;;;5011671;28;20036;-53
2021/11/07 04:13:51;;;;;;;24.80;4.85;;;10.20;99.90;;;;;;5055608;22;20316;-53
2021/11/07 04:16:17;;;;;;;23.95;4.63;;;10.10;99.90;;;;;;5030764;28;20090;-54
2021/11/07 04:18:45;;;;;;;20.52;5.05;;;10.10;99.90;;;;;;5031900;28;20507;-54
2021/11/07 04:21:10;;;;;;;23.98;4.38;;;10.10;99.90;;;;;;5032011;28;20045;-52
2021/11/07 04:23:36;;;;;;;21.20;3.80;;;10.10;99.90;;;;;;5030716;28;20044;-53
2021/11/07 04:26:03;;;;;;;24.90;4.50;;;10.10;99.90;;;;;;5020781;28;20053;-54
2021/11/07 04:28:30;;;;;;;17.17;3.75;;;10.10;99.90;;;;;;4977781;28;20037;-53
2021/11/07 04:30:56;;;;;;;19.65;4.00;;;10.10;99.90;;;;;;5012253;28;20535;-53
2021/11/07 04:33:24;;;;;;;16.90;4.40;;;10.10;99.90;;;;;;5012194;28;20041;-52
2021/11/07 04:35:50;;;;;;;22.85;4.30;;;10.10;99.90;;;;;;5005519;28;20300;-54
2021/11/07 04:38:17;;;;;;;19.50;3.83;;;10.10;99.90;;;;;;5009780;28;20410;-53
2021/11/07 04:40:43;;;;;;;19.63;3.88;;;10.10;99.90;;;;;;5011874;28;20038;-54
2021/11/07 04:43:08;;;;;;;22.30;4.13;;;10.20;99.90;;;;;;5011191;28;20482;-54
2021/11/07 04:45:34;;;;;;;19.80;3.53;;;10.30;99.90;;;;;;5013379;28;20037;-52
2021/11/07 04:48:02;;;;;;;23.90;3.95;;;10.40;99.90;;;;;;5007311;28;20042;-52
2021/11/07 04:50:28;;;;;;;23.40;4.55;;;10.40;99.90;;;;;;5011502;28;20128;-53
2021/11/07 04:52:54;;;;;;;24.42;3.72;;;10.40;99.90;;;;;;5006877;28;20037;-53
2021/11/07 04:55:19;;;;;;;25.67;5.75;;;10.50;99.90;;;;;;5018183;28;20124;-50
2021/11/07 04:57:45;;;;;;;20.45;4.57;;;10.50;99.90;;;;;;5013674;28;20034;-50
2021/11/07 05:00:18;;;;;;;19.30;4.35;;;10.50;99.90;;;;;;5013192;28;20042;-51
2021/11/07 05:02:45;;;;;;;17.33;3.90;;;10.50;99.90;;;;;;4996981;28;20030;-49
2021/11/07 05:05:11;;;;;;;19.20;4.30;;;10.50;99.90;;;;;;5011103;28;20048;-51
2021/11/07 05:07:37;;;;;;;19.67;4.55;;;10.50;99.90;;;;;;4977391;28;20045;-51
2021/11/07 05:10:03;;;;;;;15.90;4.93;;;10.50;99.90;;;;;;5011594;28;20034;-50
2021/11/07 05:12:30;;;;;;;17.55;5.13;;;10.50;99.90;;;;;;4994790;28;20084;-50
2021/11/07 05:14:56;;;;;;;20.05;3.88;;;10.50;99.90;;;;;;5006514;28;20033;-49
2021/11/07 05:17:22;;;;;;;18.42;4.57;;;10.50;99.90;;;;;;5014060;28;20037;-50
2021/11/07 05:19:48;;;;;;;20.85;4.30;;;10.50;99.90;;;;;;5006817;28;20038;-51
2021/11/07 05:22:15;;;;;;;20.13;3.90;;;10.50;99.90;;;;;;4964515;28;20037;-53
2021/11/07 05:24:40;;;;;;;20.60;4.90;;;10.40;99.90;;;;;;4978034;28;20195;-52
2021/11/07 05:27:06;;;;;;;22.70;5.10;;;10.40;99.90;;;;;;4977024;28;20537;-50
2021/11/07 05:29:32;;;;;;;18.55;4.20;;;10.40;99.90;;;;;;4980300;28;20164;-50
2021/11/07 05:31:59;;;;;;;22.90;4.53;;;10.30;99.90;;;;;;5011390;28;20056;-51
2021/11/07 05:34:25;;;;;;;21.88;4.35;;;10.40;99.90;;;;;;5011464;28;20045;-51
2021/11/07 05:36:51;;;;;;;23.42;4.68;;;10.30;99.90;;;;;;5010948;28;20406;-50
2021/11/07 05:39:17;;;;;;;30.75;4.75;;;10.30;99.90;;;;;;5010245;28;20116;-50
2021/11/07 05:41:43;;;;;;;22.15;4.63;;;10.30;99.90;;;;;;5009275;28;20068;-50
2021/11/07 05:44:08;;;;;;;18.10;4.20;;;10.20;99.90;;;;;;5011223;28;20522;-49
2021/11/07 05:46:34;;;;;;;25.25;4.72;;;10.20;99.90;;;;;;5014572;28;20168;-51
2021/11/07 05:49:00;;;;;;;21.67;5.15;;;10.20;99.90;;;;;;5013080;28;20045;-51
2021/11/07 05:51:26;;;;;;;24.00;4.32;;;10.10;99.90;;;;;;5010680;28;20046;-51
2021/11/07 05:53:52;;;;;;;15.70;4.05;;;10.10;99.90;;;;;;5007863;28;20214;-50
2021/11/07 05:56:17;;;;;;;22.02;4.07;;;10.10;99.90;;;;;;5012429;28;20108;-50
2021/11/07 05:58:43;;;;;;;27.13;4.55;;;10.10;99.90;;;;;;4992828;28;20123;-50
2021/11/07 06:01:09;;;;;;;19.75;4.30;;;10.10;99.90;;;;;;5013221;28;20124;-50
2021/11/07 06:03:36;;;;;;;20.60;4.28;;;10.10;99.90;;;;;;5010170;28;20030;-49
2021/11/07 06:06:02;;;;;;;18.83;3.55;;;10.10;99.90;;;;;;4992267;28;20125;-50
2021/11/07 06:08:28;;;;;;;23.30;4.20;;;10.00;99.90;;;;;;5010418;28;20092;-50
2021/11/07 06:10:54;;;;;;;18.25;3.78;;;10.10;99.90;;;;;;5011503;28;20042;-51
2021/11/07 06:13:20;;;;;;;21.73;5.65;;;10.10;99.90;;;;;;5012292;28;20037;-49
2021/11/07 06:15:46;;;;;;;20.85;4.43;;;10.10;99.90;;;;;;5012761;28;20041;-53
2021/11/07 06:18:12;;;;;;;24.98;4.65;;;10.10;99.90;;;;;;5008816;28;20038;-51
2021/11/07 06:20:38;;;;;;;25.92;4.20;;;10.10;99.90;;;;;;5011222;28;20038;-51
2021/11/07 06:23:05;;;;;;;16.88;3.80;;;10.10;99.90;;;;;;5007980;28;20532;-52
2021/11/07 06:25:31;;;;;;;25.33;3.95;;;10.10;99.90;;;;;;5012932;28;20057;-51
2021/11/07 06:27:57;;;;;;;21.55;4.15;;;10.10;99.90;;;;;;5012896;28;20129;-52
2021/11/07 06:30:22;;;;;;;20.70;3.90;;;10.00;99.90;;;;;;5013359;28;20069;-51
2021/11/07 06:32:49;;;;;;;22.08;4.85;;;10.00;99.90;;;;;;5009556;28;20549;-51
2021/11/07 06:35:15;;;;;;;19.40;3.70;;;10.00;99.90;;;;;;5011212;28;20057;-54
2021/11/07 06:37:42;;;;;;;19.42;4.22;;;10.00;99.90;;;;;;5014302;28;20042;-55
2021/11/07 06:40:09;;;;;;;21.63;3.83;;;9.90;99.90;;;;;;5009279;28;20123;-55
2021/11/07 06:42:35;;;;;;;20.30;4.28;;;9.90;99.90;;;;;;5005384;28;20034;-51
2021/11/07 06:45:00;;;;;;;20.63;3.90;;;9.90;99.90;;;;;;5013964;28;20037;-52
2021/11/07 06:47:26;;;;;;;17.70;4.03;;;9.80;99.90;;;;;;5014570;28;20046;-51
2021/11/07 06:49:53;;;;;;;20.30;3.90;;;9.80;99.90;;;;;;5013967;28;20116;-51
2021/11/07 06:52:19;;;;;;;19.83;3.97;;;9.70;99.90;;;;;;5014553;28;20042;-51
2021/11/07 06:54:46;;;;;;;21.67;4.05;;;9.70;99.90;;;;;;5016974;28;20498;-52
2021/11/07 06:57:11;;;;;;;20.23;4.03;;;9.60;99.90;;;;;;5019664;28;20053;-51
2021/11/07 06:59:37;;;;;;;23.25;4.70;;;9.60;99.90;;;;;;5016066;28;20520;-55
2021/11/07 07:02:03;;;;;;;23.80;3.75;;;9.50;99.90;;;;;;5016082;28;20045;-54
2021/11/07 07:04:28;;;;;;;19.90;4.05;;;9.50;99.90;;;;;;5010464;28;20030;-55
2021/11/07 07:06:57;;;;;;;22.50;4.15;;;9.50;99.90;;;;;;5017903;28;20445;-55
2021/11/07 07:09:27;;;;;;;14.85;3.33;;;9.50;99.90;;;;;;4997248;28;20034;-54
2021/11/07 07:12:14;;;;;;;25.45;4.07;;;9.40;99.90;;;;;;4980314;28;20033;-54
2021/11/07 07:14:56;;;;;;;21.50;4.18;;;9.50;99.90;;;;;;4977527;28;20161;-51
2021/11/07 07:17:47;;;;;;;23.80;5.20;;;9.40;99.90;;;;;;5018107;28;20033;-51
2021/11/07 07:25:42;;;;;;;22.02;4.45;;;9.50;99.90;;;;;;5016415;28;20045;-52
2021/11/07 07:30:46;;;;;;;20.33;3.80;;;9.50;99.90;;;;;;4995493;28;20143;-53
2021/11/07 07:35:37;;;;;;;16.27;4.38;;;9.60;99.90;;;;;;4975139;28;20100;-53
2021/11/07 07:38:03;;;;;;;20.65;3.85;;;9.60;99.90;;;;;;5010126;28;20037;-52
2021/11/07 07:40:28;;;;;;;26.70;4.45;;;9.60;99.90;;;;;;5009606;28;20049;-55
2021/11/07 07:42:55;;;;;;;26.55;4.75;;;9.70;99.90;;;;;;5008116;28;20030;-54
2021/11/07 07:45:21;;;;;;;24.88;4.80;;;9.70;99.90;;;;;;5009712;28;20072;-50
2021/11/07 07:47:47;;;;;;;20.77;4.15;;;9.80;99.90;;;;;;5011257;28;20398;-51
2021/11/07 07:50:13;;;;;;;22.05;3.88;;;9.80;99.90;;;;;;5016712;28;20029;-51
2021/11/07 07:52:39;;;;;;;22.02;4.20;;;9.90;99.90;;;;;;4992736;28;20029;-51
2021/11/07 07:55:08;;;;;;;21.40;3.97;;;9.90;99.90;;;;;;5005644;28;20437;-51
2021/11/07 07:57:35;;;;;;;19.38;3.72;;;10.00;99.90;;;;;;5009859;28;20432;-51
2021/11/07 08:00:01;;;;;;;15.68;3.10;;;10.10;99.90;;;;;;5010176;28;20080;-55
2021/11/07 08:02:27;;;;;;;18.23;4.00;;;10.10;99.90;;;;;;5012568;28;20127;-51
2021/11/07 08:04:52;;;;;;;21.05;3.40;;;10.10;99.90;;;;;;5010499;28;20539;-52
2021/11/07 08:07:18;;;;;;;18.85;4.25;;;10.20;99.90;;;;;;5017504;28;20044;-51
2021/11/07 08:09:44;;;;;;;26.65;4.25;;;10.20;99.90;;;;;;5011877;28;20033;-53
2021/11/07 08:12:09;;;;;;;20.13;3.08;;;10.10;99.90;;;;;;5017114;28;20041;-52
2021/11/07 08:14:35;;;;;;;16.60;3.47;;;10.20;99.70;;;;;;5013960;28;20485;-51
2021/11/07 08:17:01;;;;;;;20.25;3.22;;;10.10;99.60;;;;;;5014200;28;20053;-52
2021/11/07 08:19:27;;;;;;;13.93;3.25;;;10.10;99.90;;;;;;5017139;28;20430;-51
2021/11/07 08:21:53;;;;;;;21.90;4.18;;;10.10;99.90;;;;;;5012463;28;20033;-52
2021/11/07 08:24:19;;;;;;;16.77;3.58;;;10.10;99.90;;;;;;5011195;28;20041;-51
2021/11/07 08:26:46;;;;;;;18.95;3.55;;;10.10;99.90;;;;;;5011968;28;20111;-51
2021/11/07 08:29:14;;;;;;;16.08;2.33;;;10.10;99.90;;;;;;4997074;28;20088;-51
2021/11/07 08:31:40;;;;;;;14.40;3.88;;;10.20;99.50;;;;;;4990970;28;20455;-51
2021/11/07 08:34:07;;;;;;;9.40;1.98;;;10.20;98.20;;;;;;5012217;28;20406;-54
2021/11/07 08:36:50;;;;;;;11.77;1.98;;;10.20;97.30;;;;;;5010882;28;20042;-54
2021/11/07 08:39:20;;;;;;;11.20;3.35;;;10.20;96.70;;;;;;4989460;28;20141;-54
2021/11/07 09:00:32;;;;;;;11.60;2.00;;;10.10;96.80;;;;;;4987741;28;20038;-53
2021/11/07 09:08:18;;;;;;;10.50;2.45;;;10.20;96.20;;;;;;5000330;28;20054;-53
2021/11/07 09:10:45;;;;;;;11.88;2.55;;;10.30;96.70;;;;;;4979642;28;20065;-52
2021/11/07 09:13:13;;;;;;;16.83;3.10;;;10.30;96.70;;;;;;4998430;28;20049;-52
2021/11/07 09:15:43;;;;;;;11.05;2.47;;;10.40;96.30;;;;;;4985789;28;20052;-52
2021/11/07 09:18:09;;;;;;;14.57;3.20;;;10.40;96.50;;;;;;4997387;28;20117;-51
2021/11/07 09:23:10;;;;;;;12.48;2.88;;;10.50;96.50;;;;;;4987103;28;20410;-50
2021/11/07 09:25:43;;;;;;;13.63;3.08;;;10.50;96.20;;;;;;5004819;28;20038;-50
2021/11/07 09:28:15;;;;;;;11.98;2.72;;;10.50;96.30;;;;;;5002047;28;20056;-49
2021/11/07 09:33:13;;;;;;;18.20;3.25;;;10.50;96.80;;;;;;5011881;28;20065;-52
2021/11/07 09:35:46;;;;;;;11.77;2.38;;;10.50;96.90;;;;;;5011364;28;20402;-52
2021/11/07 09:40:46;;;;;;;18.83;3.38;;;10.50;97.40;;;;;;5008417;28;20045;-53
2021/11/07 09:48:21;;;;;;;14.43;2.85;;;10.50;98.30;;;;;;5008570;28;20050;-49
2021/11/07 09:50:47;;;;;;;19.08;2.95;;;10.60;98.10;;;;;;5002259;28;20050;-50
2021/11/07 09:53:14;;;;;;;16.63;3.92;;;10.60;97.80;;;;;;4998331;28;20061;-50
2021/11/07 09:55:40;;;;;;;13.40;2.97;;;10.60;97.50;;;;;;5004444;28;20093;-53
2021/11/07 09:58:06;;;;;;;17.55;3.08;;;10.60;97.30;;;;;;4958888;28;20039;-52
2021/11/07 10:00:37;;;;;;;18.88;3.05;;;10.50;96.70;;;;;;5008624;28;20029;-52
2021/11/07 10:03:03;;;;;;;11.98;2.25;;;10.50;96.10;;;;;;5010897;28;20552;-50
2021/11/07 10:05:29;;;;;;;15.98;2.50;;;10.50;95.00;;;;;;5010017;28;20034;-49
2021/11/07 10:08:02;;;;;;;15.13;2.72;;;10.40;95.30;;;;;;5010065;28;20079;-53
2021/11/07 10:10:33;;;;;;;13.90;2.20;;;10.40;95.00;;;;;;5008343;28;20132;-50
2021/11/07 10:13:10;;;;;;;15.35;2.83;;;10.40;95.20;;;;;;5012498;28;20034;-49
2021/11/07 10:15:50;;;;;;;10.88;2.13;;;10.50;95.30;;;;;;5045687;22;20048;-49
2021/11/07 10:18:44;;;;;;;10.73;1.90;;;10.60;94.80;;;;;;5024996;28;20041;-49
2021/11/07 10:21:25;;;;;;;11.13;2.35;;;10.60;93.90;;;;;;5034398;28;20084;-49
2021/11/07 10:24:06;;;;;;;13.02;2.15;;;10.60;93.40;;;;;;5034360;28;20041;-49
2021/11/07 10:26:41;;;;;;;10.07;1.67;;;10.70;93.70;;;;;;5034084;28;20048;-49
2021/11/07 10:29:10;;;;;;;12.68;2.50;;;10.70;93.60;;;;;;5034202;28;20049;-48
2021/11/07 10:31:45;;;;;;;8.73;1.80;;;10.70;94.10;;;;;;5034181;28;20097;-51
2021/11/07 10:34:48;;;;;;;11.00;2.35;;;10.60;94.70;;;;;;5032506;28;20037;-50
2021/11/07 10:45:24;;;;;;;13.75;2.13;;;10.60;95.20;;;;;;5033797;28;20524;-50
2021/11/07 10:53:26;;;;;;;17.00;2.90;;;10.90;95.30;;;;;;5034294;28;20143;-53
2021/11/07 10:56:02;;;;;;;12.90;2.90;;;11.00;95.10;;;;;;5033470;28;20481;-53
2021/11/07 10:58:32;;;;;;;15.10;2.78;;;11.00;95.30;;;;;;5029776;28;20092;-52
2021/11/07 11:01:01;;;;;;;18.40;3.20;;;11.10;95.60;;;;;;5033175;28;20040;-51
2021/11/07 11:03:27;;;;;;;18.85;2.50;;;11.20;95.30;;;;;;5033871;28;20041;-51
2021/11/07 11:08:31;;;;;;;14.52;3.15;;;11.30;95.50;;;;;;5034467;28;20045;-51
2021/11/07 11:16:42;;;;;;;15.32;3.08;;;11.50;95.20;;;;;;5030469;28;20068;-54
2021/11/07 11:25:24;;;;;;;15.88;3.28;;;11.50;95.00;;;;;;5031708;28;20102;-55
2021/11/07 11:28:04;;;;;;;18.25;3.30;;;11.50;95.20;;;;;;5032761;28;20120;-53
2021/11/07 11:41:04;;;;;;;16.90;2.83;;;11.90;94.30;;;;;;5025184;28;20077;-50
2021/11/07 11:46:07;;;;;;;14.95;3.60;;;11.90;93.10;;;;;;5032496;28;20064;-51
2021/11/07 11:49:24;;;;;;;19.45;3.35;;;11.90;93.30;;;;;;5014731;28;20508;-52
2021/11/07 12:00:46;;;;;;;17.58;3.47;;;11.40;96.30;;;;;;5032415;28;20059;-52
2021/11/07 12:03:37;;;;;;;15.13;2.95;;;11.30;97.30;;;;;;5032953;28;20044;-50
2021/11/07 12:06:34;;;;;;;18.48;3.40;;;11.00;98.10;;;;;;5031105;28;20124;-52
2021/11/07 12:09:59;;;;;;;22.63;3.63;;;10.90;99.10;;;;;;5030909;28;20061;-50
2021/11/07 12:12:13;;;;;;;18.70;3.63;;;10.90;99.00;;;;;;5009236;28;20113;-51
2021/11/07 12:15:12;;;;;;;19.15;3.80;;;10.90;99.00;;;;;;5012353;28;20492;-50
2021/11/07 12:17:41;;;;;;;20.98;3.65;;;10.90;99.80;;;;;;5030516;28;20119;-50
2021/11/07 12:20:26;;;;;;;23.98;3.22;;;10.90;99.80;;;;;;5032653;28;20049;-51
2021/11/07 12:23:14;;;;;;;20.60;3.00;;;10.80;99.40;;;;;;5031578;28;20033;-50
2021/11/07 12:25:40;;;;;;;19.38;4.30;;;10.80;99.30;;;;;;5031960;28;20052;-50
2021/11/07 12:28:06;;;;;;;22.55;3.85;;;10.80;99.50;;;;;;5026293;28;20029;-50
2021/11/07 12:30:33;;;;;;;26.30;4.90;;;10.80;98.80;;;;;;5032020;28;20034;-50
2021/11/07 12:33:11;;;;;;;22.58;4.13;;;10.80;98.50;;;;;;5027944;28;20044;-50
2021/11/07 12:35:41;;;;;;;17.25;3.28;;;10.70;98.50;;;;;;5029479;28;20042;-50
2021/11/07 12:41:18;;;;;;;21.23;4.13;;;10.70;98.10;;;;;;5026610;28;20501;-52
2021/11/07 12:43:49;;;;;;;25.45;3.55;;;10.70;97.70;;;;;;5023093;28;20076;-50
2021/11/07 12:46:43;;;;;;;15.68;3.30;;;10.80;97.60;;;;;;5031619;28;20049;-50
2021/11/07 12:49:15;;;;;;;24.10;3.67;;;11.20;97.80;;;;;;5024566;28;20037;-50
2021/11/07 12:51:49;;;;;;;21.67;4.32;;;10.90;97.50;;;;;;5031502;28;20049;-50
2021/11/07 12:54:24;;;;;;;17.83;3.70;;;11.00;97.60;;;;;;5024657;28;20424;-50
2021/11/07 12:57:03;;;;;;;21.40;3.58;;;11.10;97.70;;;;;;5028147;28;20045;-54
2021/11/07 12:59:41;;;;;;;24.27;4.93;;;11.10;96.60;;;;;;5028231;28;20064;-52
2021/11/07 13:02:11;;;;;;;24.27;4.50;;;11.20;96.30;;;;;;5027715;28;20071;-52
2021/11/07 13:04:46;;;;;;;19.30;3.70;;;11.30;95.20;;;;;;5025157;28;20045;-52
2021/11/07 13:07:30;;;;;;;22.00;4.13;;;11.30;94.30;;;;;;5029803;28;20132;-54
2021/11/07 13:10:05;;;;;;;20.23;3.80;;;11.20;96.00;;;;;;5031276;28;20064;-54
2021/11/07 13:12:43;;;;;;;15.38;2.75;;;10.90;97.80;;;;;;5031232;28;20382;-52
2021/11/07 13:33:42;;;;;;;13.50;2.63;;;9.60;99.90;;;;;;5028978;28;20088;-52
2021/11/07 13:36:09;;;;;;;14.77;3.05;;;9.60;99.90;;;;;;5031089;28;20037;-52
2021/11/07 13:38:46;;;;;;;15.07;3.10;;;9.50;99.90;;;;;;5028201;28;20057;-52
2021/11/07 13:41:17;;;;;;;15.95;3.15;;;9.50;99.90;;;;;;5030905;28;20131;-52
2021/11/07 13:43:52;;;;;;;14.27;2.70;;;9.50;99.90;;;;;;5021522;28;20509;-52
2021/11/07 13:46:18;;;;;;;14.65;2.67;;;9.50;99.90;;;;;;5026873;28;20045;-52
2021/11/07 13:48:43;;;;;;;19.00;2.88;;;9.60;99.90;;;;;;5005723;28;20052;-52
2021/11/07 13:51:10;;;;;;;14.80;2.33;;;9.60;99.90;;;;;;5030954;28;20481;-53
2021/11/07 13:53:41;;;;;;;18.65;3.35;;;9.60;99.90;;;;;;5025027;28;20034;-52
2021/11/07 13:56:09;;;;;;;19.95;3.30;;;9.70;99.90;;;;;;5030269;28;20120;-52
2021/11/07 13:58:40;;;;;;;21.30;3.53;;;9.70;99.90;;;;;;5025720;28;20374;-52
2021/11/07 14:01:07;;;;;;;18.08;3.22;;;9.70;99.90;;;;;;5024076;28;20087;-52
2021/11/07 14:03:33;;;;;;;14.80;3.05;;;9.70;99.90;;;;;;5030640;28;20556;-52
2021/11/07 14:06:23;;;;;;;21.08;3.70;;;9.60;99.90;;;;;;5030022;28;20042;-52
2021/11/07 14:08:51;;;;;;;18.90;3.45;;;9.50;99.90;;;;;;5030489;28;20046;-52
2021/11/07 14:11:21;;;;;;;21.15;3.50;;;9.50;99.90;;;;;;5019294;28;20131;-52
2021/11/07 14:13:52;;;;;;;21.35;3.20;;;9.50;99.90;;;;;;5029820;28;20493;-54
2021/11/07 14:16:37;;;;;;;19.23;3.00;;;9.50;99.90;;;;;;5030269;28;20600;-55
2021/11/07 14:19:07;;;;;;;21.88;4.20;;;9.50;99.90;;;;;;5027479;28;20264;-52
2021/11/07 14:21:37;;;;;;;18.88;3.60;;;9.60;99.90;;;;;;5030624;28;20127;-52
2021/11/07 14:26:44;;;;;;;17.80;3.08;;;9.60;99.90;;;;;;5030397;28;20045;-52
2021/11/07 14:32:06;;;;;;;15.98;3.13;;;9.70;99.90;;;;;;5029241;28;20053;-52
2021/11/07 14:34:51;;;;;;;16.75;2.80;;;9.70;99.90;;;;;;5023926;28;20466;-52
2021/11/07 14:37:47;;;;;;;16.52;3.60;;;9.70;99.90;;;;;;5027361;28;20085;-54
2021/11/07 14:40:16;;;;;;;;;;;9.60;99.90;;;;;;5022939;28;20100;-55
2021/11/07 14:42:58;;;;;;;19.70;3.75;;;9.60;99.90;;;;;;5025182;28;19917;-52
2021/11/07 14:45:42;;;;;;;14.85;3.20;;;9.50;99.90;;;;;;5020057;28;20485;-52
2021/11/07 14:53:14;;;;;;;23.25;3.88;;;9.50;99.90;;;;;;5029560;28;20181;-52
2021/11/07 14:55:53;;;;;;;26.45;3.75;;;9.50;99.90;;;;;;5024482;28;20075;-52
2021/11/07 14:58:34;;;;;;;20.33;4.15;;;9.50;99.90;;;;;;5027109;28;20099;-52
2021/11/07 15:01:10;;;;;;;21.50;3.88;;;9.50;99.90;;;;;;5029780;28;20029;-52
2021/11/07 15:04:15;;;;;;;22.05;4.05;;;9.50;99.90;;;;;;5033639;28;20045;-52
2021/11/07 15:06:58;;;;;;;19.95;4.07;;;9.60;99.90;;;;;;5028628;28;20033;-52
2021/11/07 15:09:42;;;;;;;24.45;5.22;;;9.50;99.90;;;;;;5032081;28;20494;-54
2021/11/07 15:17:47;;;;;;;24.52;4.50;;;9.50;99.90;;;;;;5031874;28;20515;-53
2021/11/07 15:20:15;;;;;;;22.77;4.20;;;9.50;99.90;;;;;;5030178;28;20052;-52